Time;durP1;ratioP1;P1;durP2;ratioP2;P2;SDS_P1;SDS_P2;PMS_P1;PMS_P2;Temp;Humidity;BMP_temperature;BMP_pressure;BME280_temperature;BME280_humidity;BME280_pressure;Samples;Min_cycle;Max_cycle;Signal;HPM_P1;HPM_P2
2022/04/08 00:00:17;;;;;;;5.03;0.80;;;;;;;3.66;61.92;99311.56;5113799;28;20035;-42
2022/04/08 00:02:43;;;;;;;2.25;0.60;;;;;;;3.68;61.94;99328.97;5113476;28;20034;-43
2022/04/08 00:05:10;;;;;;;2.35;0.80;;;;;;;3.65;62.07;99320.53;5113608;28;20488;-48
2022/04/08 00:07:36;;;;;;;1.98;0.70;;;;;;;3.52;62.16;99304.38;5113948;28;20043;-45
2022/04/08 00:10:04;;;;;;;2.80;0.73;;;;;;;3.61;61.87;99321.88;5113864;28;20106;-45
2022/04/08 00:12:29;;;;;;;1.70;0.70;;;;;;;3.62;62.22;99321.72;5113897;28;20028;-48
2022/04/08 00:14:55;;;;;;;12.25;1.10;;;;;;;3.56;62.17;99324.25;5095814;28;20387;-45
2022/04/08 00:17:21;;;;;;;2.50;0.80;;;;;;;3.55;62.16;99323.41;5096232;28;20028;-45
2022/04/08 00:19:47;;;;;;;3.90;0.90;;;;;;;3.55;61.89;99330.53;5114527;28;20023;-43
2022/04/08 00:22:13;;;;;;;2.90;1.00;;;;;;;3.46;62.06;99309.38;5114461;28;20027;-43
2022/04/08 00:24:38;;;;;;;3.67;1.77;;;;;;;3.49;61.82;99316.13;5079100;28;20023;-43
2022/04/08 00:27:04;;;;;;;6.32;1.00;;;;;;;3.53;61.81;99319.28;5095978;28;20096;-43
2022/04/08 00:29:30;;;;;;;3.03;0.90;;;;;;;3.53;61.65;99320.13;5113711;28;20073;-43
2022/04/08 00:31:57;;;;;;;2.38;0.80;;;;;;;3.44;62.24;99321.16;5113542;28;20023;-44
2022/04/08 00:34:25;;;;;;;2.88;0.98;;;;;;;3.49;61.76;99332.06;5095190;28;20024;-43
2022/04/08 00:36:51;;;;;;;4.13;0.70;;;;;;;3.44;62.01;99326.47;5095588;28;20024;-43
2022/04/08 00:39:16;;;;;;;3.72;1.00;;;;;;;3.47;61.82;99316.34;5117274;28;20394;-45
2022/04/08 00:41:42;;;;;;;3.88;0.65;;;;;;;3.37;61.68;99314.91;5082084;28;20032;-43
2022/04/08 00:44:10;;;;;;;3.63;0.85;;;;;;;3.42;61.67;99325.84;5117690;28;20101;-43
2022/04/08 00:46:38;;;;;;;4.35;0.80;;;;;;;3.34;61.97;99321.38;5099370;28;20054;-44
2022/04/08 00:49:04;;;;;;;3.92;1.10;;;;;;;3.36;62.16;99323.88;5116819;28;20046;-45
2022/04/08 00:51:31;;;;;;;7.20;1.05;;;;;;;3.28;62.16;99316.78;5098541;28;20035;-46
2022/04/08 00:53:58;;;;;;;4.93;0.70;;;;;;;3.34;62.03;99326.69;5116856;28;20061;-45
2022/04/08 00:56:24;;;;;;;5.15;1.10;;;;;;;3.17;62.35;99306.56;5098595;28;20089;-44
2022/04/08 00:58:51;;;;;;;4.18;0.95;;;;;;;3.31;62.23;99324.41;5098588;28;20516;-44
2022/04/08 01:01:17;;;;;;;2.20;0.73;;;;;;;3.28;62.35;99324.75;5098278;28;20053;-43
2022/04/08 01:03:43;;;;;;;6.28;1.08;;;;;;;3.27;62.26;99325.75;5116678;28;20023;-46
2022/04/08 01:06:09;;;;;;;4.20;0.88;;;;;;;3.09;62.74;99310.09;5099022;28;20031;-44
2022/04/08 01:08:35;;;;;;;4.38;0.70;;;;;;;3.18;62.22;99324.16;5098268;28;20441;-46
2022/04/08 01:11:03;;;;;;;3.50;0.80;;;;;;;3.20;62.51;99324.78;5117067;28;20055;-44
2022/04/08 01:13:29;;;;;;;6.18;0.80;;;;;;;3.18;62.44;99311.69;5116847;28;20024;-44
2022/04/08 01:15:54;;;;;;;5.60;0.82;;;;;;;3.19;61.99;99310.69;5116217;28;20032;-43
2022/04/08 01:18:20;;;;;;;3.92;1.00;;;;;;;3.12;62.48;99300.94;5116520;28;20024;-44
2022/04/08 01:20:46;;;;;;;4.75;0.80;;;;;;;3.15;62.16;99300.63;5116279;28;20031;-43
2022/04/08 01:23:15;;;;;;;3.95;0.80;;;;;;;3.12;62.03;99287.69;5116628;28;20043;-44
2022/04/08 01:25:41;;;;;;;2.55;0.73;;;;;;;3.16;62.09;99302.25;5097850;28;20031;-43
2022/04/08 01:28:07;;;;;;;2.00;0.60;;;;;;;3.14;61.69;99302.44;5098086;28;20034;-43
2022/04/08 01:30:32;;;;;;;6.18;1.10;;;;;;;3.13;61.94;99302.63;5098102;28;20039;-43
2022/04/08 01:32:58;;;;;;;4.28;1.33;;;;;;;3.11;61.89;99300.13;5098108;28;20105;-44
2022/04/08 01:35:24;;;;;;;3.75;0.80;;;;;;;3.05;61.95;99291.03;5098016;28;20394;-44
2022/04/08 01:37:50;;;;;;;4.97;0.80;;;;;;;3.06;62.10;99289.22;5116217;28;20028;-45
2022/04/08 01:40:17;;;;;;;6.55;1.00;;;;;;;3.04;62.18;99291.22;5080938;28;20027;-44
2022/04/08 01:42:43;;;;;;;4.97;0.70;;;;;;;2.97;61.75;99282.28;5116073;28;20035;-44
2022/04/08 01:45:09;;;;;;;8.27;1.27;;;;;;;2.95;62.10;99282.47;5097753;28;20081;-46
2022/04/08 01:47:35;;;;;;;2.30;0.93;;;;;;;3.01;62.17;99294.19;5116299;28;20028;-43
2022/04/08 01:50:01;;;;;;;3.78;0.90;;;;;;;2.98;61.99;99302.53;5115461;28;20089;-43
2022/04/08 01:52:27;;;;;;;3.90;0.80;;;;;;;2.91;62.21;99289.13;5097824;28;20028;-44
2022/04/08 01:54:52;;;;;;;5.28;0.90;;;;;;;2.97;62.34;99301.72;5097977;28;20028;-45
2022/04/08 01:57:22;;;;;;;8.10;1.20;;;;;;;2.89;62.49;99293.78;5081198;28;20072;-44
2022/04/08 01:59:48;;;;;;;2.78;0.77;;;;;;;2.94;62.44;99301.22;5117664;28;20038;-44
2022/04/08 02:02:14;;;;;;;3.75;1.48;;;;;;;2.92;62.54;99298.75;5098533;28;20488;-44
2022/04/08 02:04:40;;;;;;;3.67;0.77;;;;;;;2.92;62.62;99296.09;5116541;28;20051;-43
2022/04/08 02:07:06;;;;;;;4.30;0.90;;;;;;;2.87;62.66;99299.25;5116216;28;20031;-44
2022/04/08 02:09:33;;;;;;;7.57;0.90;;;;;;;2.89;62.73;99299.91;5097690;28;20118;-44
2022/04/08 02:11:59;;;;;;;8.15;1.05;;;;;;;2.95;62.72;99306.34;5115527;28;20108;-45
2022/04/08 02:14:25;;;;;;;5.75;1.00;;;;;;;2.95;62.90;99305.50;5080611;28;20057;-44
2022/04/08 02:16:51;;;;;;;4.60;0.95;;;;;;;2.84;62.65;99291.66;5097541;28;20042;-45
2022/04/08 02:19:16;;;;;;;5.32;1.25;;;;;;;2.90;63.02;99306.88;5115027;28;20042;-44
2022/04/08 02:21:43;;;;;;;3.00;0.77;;;;;;;2.92;63.15;99309.34;5115707;28;20118;-43
2022/04/08 02:24:09;;;;;;;4.47;1.30;;;;;;;2.94;63.31;99301.22;5097062;28;20123;-43
2022/04/08 02:26:34;;;;;;;5.07;1.45;;;;;;;2.95;62.98;99297.56;5080188;28;20035;-44
2022/04/08 02:29:00;;;;;;;6.30;1.30;;;;;;;2.93;63.17;99297.72;5096859;28;20080;-43
2022/04/08 02:31:26;;;;;;;4.05;0.80;;;;;;;2.61;63.16;99240.38;5115149;28;20410;-44
2022/04/08 02:33:52;;;;;;;8.85;1.00;;;;;;;2.86;63.35;99284.34;5114990;28;20106;-44
2022/04/08 02:36:18;;;;;;;3.05;1.05;;;;;;;2.87;63.76;99285.97;5115146;28;20102;-44
2022/04/08 02:38:43;;;;;;;3.15;1.15;;;;;;;2.87;63.28;99269.25;5115625;28;20451;-43
2022/04/08 02:41:09;;;;;;;3.33;1.08;;;;;;;2.85;63.73;99265.97;5115198;28;20027;-44
2022/04/08 02:43:35;;;;;;;6.30;1.25;;;;;;;2.86;63.64;99262.28;5115268;28;20027;-43
2022/04/08 02:46:01;;;;;;;4.70;1.30;;;;;;;2.85;63.87;99265.97;5096935;28;20036;-46
2022/04/08 02:48:27;;;;;;;3.67;0.98;;;;;;;2.79;63.79;99253.41;5115200;28;20442;-45
2022/04/08 02:50:53;;;;;;;9.35;1.35;;;;;;;2.71;64.04;99248.94;5096862;28;20106;-44
2022/04/08 02:53:18;;;;;;;3.72;1.30;;;;;;;2.72;64.46;99242.66;5114561;28;20532;-44
2022/04/08 02:55:44;;;;;;;5.93;0.93;;;;;;;2.77;64.50;99244.78;5115024;28;20067;-44
2022/04/08 02:58:10;;;;;;;7.63;0.85;;;;;;;2.74;64.54;99239.84;5114569;28;20355;-44
2022/04/08 03:00:36;;;;;;;6.40;1.00;;;;;;;2.63;64.99;99225.97;5113875;28;20031;-43
2022/04/08 03:03:01;;;;;;;3.35;0.98;;;;;;;2.56;65.07;99217.03;5114853;28;20085;-43
2022/04/08 03:05:27;;;;;;;2.92;1.00;;;;;;;2.68;64.89;99230.75;5114455;28;20046;-43
2022/04/08 03:07:53;;;;;;;6.45;1.40;;;;;;;2.66;65.60;99238.06;5114612;28;20432;-44
2022/04/08 03:10:19;;;;;;;2.33;0.95;;;;;;;2.65;65.30;99228.44;5114845;28;20047;-43
2022/04/08 03:12:44;;;;;;;7.43;1.67;;;;;;;2.68;65.81;99239.53;5114599;28;20088;-44
2022/04/08 03:15:11;;;;;;;8.52;1.05;;;;;;;2.67;65.45;99223.78;5114849;28;20027;-43
2022/04/08 03:17:37;;;;;;;3.60;1.13;;;;;;;2.78;65.63;99234.00;5114345;28;20027;-44
2022/04/08 03:20:04;;;;;;;6.97;0.93;;;;;;;2.76;66.04;99228.06;5114730;28;20456;-44
2022/04/08 03:22:30;;;;;;;4.93;0.98;;;;;;;2.77;65.71;99237.66;5114726;28;20464;-44
2022/04/08 03:24:56;;;;;;;4.22;0.90;;;;;;;2.77;65.60;99242.97;5114345;28;20034;-44
2022/04/08 03:27:22;;;;;;;6.03;1.10;;;;;;;2.77;65.81;99250.06;5114616;28;20031;-43
2022/04/08 03:29:49;;;;;;;10.18;1.67;;;;;;;2.61;66.09;99232.44;5114591;28;20046;-43
2022/04/08 03:32:15;;;;;;;6.78;1.38;;;;;;;2.57;66.84;99236.44;5114450;28;20063;-42
2022/04/08 03:34:41;;;;;;;7.32;1.23;;;;;;;2.58;66.79;99246.88;5114079;28;20031;-42
2022/04/08 03:37:07;;;;;;;6.32;1.33;;;;;;;2.52;67.20;99244.88;5113964;28;20494;-43
2022/04/08 03:39:33;;;;;;;7.85;1.23;;;;;;;2.59;67.29;99242.38;5114356;28;20107;-42
2022/04/08 03:41:59;;;;;;;8.00;1.23;;;;;;;2.65;67.80;99231.91;5096115;28;20027;-42
2022/04/08 03:44:24;;;;;;;4.38;1.17;;;;;;;2.79;67.19;99225.06;5096145;28;20031;-42
2022/04/08 03:46:50;;;;;;;8.63;2.25;;;;;;;2.87;67.16;99229.50;5113634;28;20162;-42
2022/04/08 03:49:17;;;;;;;4.78;1.00;;;;;;;2.91;66.81;99220.19;5096804;28;20088;-43
2022/04/08 03:51:44;;;;;;;6.25;1.30;;;;;;;2.95;66.98;99225.97;5115944;28;20024;-42
2022/04/08 03:54:10;;;;;;;6.57;1.30;;;;;;;2.88;66.83;99209.94;5097648;28;20031;-42
2022/04/08 03:56:37;;;;;;;3.90;1.23;;;;;;;2.95;66.81;99210.06;5115725;28;20086;-43
2022/04/08 03:59:03;;;;;;;9.82;1.33;;;;;;;2.87;66.75;99198.50;5114901;28;20028;-45
2022/04/08 04:01:30;;;;;;;5.40;1.65;;;;;;;2.91;67.21;99197.13;5096826;28;20383;-43
2022/04/08 04:03:55;;;;;;;7.90;1.70;;;;;;;2.95;66.96;99194.97;5113909;28;20161;-43
2022/04/08 04:06:21;;;;;;;6.28;1.73;;;;;;;2.96;67.22;99193.97;5113925;28;20063;-42
2022/04/08 04:08:47;;;;;;;7.85;1.73;;;;;;;2.87;66.96;99181.75;5096790;28;20028;-42
2022/04/08 04:11:15;;;;;;;6.10;1.25;;;;;;;2.90;67.57;99184.06;5114237;28;20148;-44
2022/04/08 04:13:41;;;;;;;4.38;1.10;;;;;;;2.96;67.36;99196.63;5100057;28;20024;-43
2022/04/08 04:16:07;;;;;;;4.10;1.30;;;;;;;2.89;67.68;99191.19;5118643;28;20023;-42
2022/04/08 04:18:33;;;;;;;12.73;1.73;;;;;;;2.83;67.48;99185.78;5100809;28;20076;-43
2022/04/08 04:20:59;;;;;;;11.05;1.98;;;;;;;2.86;67.63;99193.34;5099930;28;20031;-43
2022/04/08 04:23:25;;;;;;;5.55;1.58;;;;;;;2.76;68.49;99190.13;5118046;28;20073;-42
2022/04/08 04:25:50;;;;;;;9.60;1.58;;;;;;;2.64;68.99;99184.41;5118446;28;20119;-42
2022/04/08 04:28:16;;;;;;;6.32;1.42;;;;;;;2.59;69.45;99189.38;5099793;28;20047;-43
2022/04/08 04:30:42;;;;;;;5.15;1.45;;;;;;;2.65;69.14;99194.81;5099578;28;20031;-42
2022/04/08 04:33:08;;;;;;;6.63;1.30;;;;;;;2.68;69.45;99180.41;5117556;28;20032;-42
2022/04/08 04:35:35;;;;;;;11.25;1.92;;;;;;;2.64;69.36;99168.50;5117576;28;20120;-42
2022/04/08 04:38:01;;;;;;;7.90;1.58;;;;;;;2.66;69.31;99171.78;5117339;28;20058;-43
2022/04/08 04:40:27;;;;;;;4.70;1.50;;;;;;;2.67;69.53;99184.03;5117565;28;20464;-42
2022/04/08 04:42:53;;;;;;;8.07;1.35;;;;;;;2.63;69.58;99172.13;5117341;28;20039;-42
2022/04/08 04:45:19;;;;;;;8.80;1.70;;;;;;;2.58;69.97;99182.41;5099444;28;20041;-45
2022/04/08 04:47:45;;;;;;;6.32;1.58;;;;;;;2.55;69.85;99182.78;5099089;28;20062;-42
2022/04/08 04:50:10;;;;;;;9.27;1.40;;;;;;;2.48;69.97;99169.41;5117080;28;20051;-42
2022/04/08 04:52:36;;;;;;;3.13;1.00;;;;;;;2.42;70.09;99162.16;5081792;28;20123;-41
2022/04/08 04:55:04;;;;;;;8.48;1.10;;;;;;;2.49;69.73;99171.88;5098701;28;20489;-42
2022/04/08 04:57:29;;;;;;;7.78;1.50;;;;;;;2.43;69.45;99185.78;5099026;28;20099;-42
2022/04/08 04:59:55;;;;;;;8.55;1.40;;;;;;;2.38;70.54;99193.47;5116990;28;20087;-42
2022/04/08 05:02:21;;;;;;;3.42;1.15;;;;;;;2.18;70.26;99171.84;5098544;28;20111;-42
2022/04/08 05:04:47;;;;;;;9.07;1.55;;;;;;;2.23;70.46;99188.06;5098527;28;20044;-42
2022/04/08 05:07:13;;;;;;;3.55;1.40;;;;;;;2.09;70.96;99170.22;5098254;28;20038;-43
2022/04/08 05:09:39;;;;;;;4.15;1.45;;;;;;;2.13;71.18;99188.22;5116806;28;20030;-42
2022/04/08 05:12:06;;;;;;;5.43;0.93;;;;;;;2.14;71.13;99191.72;5098305;28;20036;-43
2022/04/08 05:14:32;;;;;;;7.25;1.27;;;;;;;2.07;71.24;99174.88;5116569;28;20034;-44
2022/04/08 05:16:58;;;;;;;4.18;1.27;;;;;;;2.08;71.81;99190.59;5116861;28;20028;-43
2022/04/08 05:19:24;;;;;;;12.25;1.48;;;;;;;1.95;71.30;99177.06;5081532;28;20031;-43
2022/04/08 05:21:52;;;;;;;6.25;1.38;;;;;;;1.97;71.50;99180.38;5116632;28;20035;-43
2022/04/08 05:24:19;;;;;;;6.38;1.48;;;;;;;2.04;71.94;99194.56;5097696;28;20036;-43
2022/04/08 05:26:45;;;;;;;4.50;1.08;;;;;;;2.05;71.54;99193.56;5116485;28;20039;-42
2022/04/08 05:29:11;;;;;;;4.63;1.63;;;;;;;1.98;71.76;99186.47;5116645;28;20031;-42
2022/04/08 05:31:36;;;;;;;4.80;1.30;;;;;;;2.02;71.33;99188.59;5116504;28;20054;-42
2022/04/08 05:34:02;;;;;;;4.13;1.40;;;;;;;1.94;71.56;99178.88;5116425;28;20055;-42
2022/04/08 05:36:28;;;;;;;6.07;2.22;;;;;;;2.03;71.49;99192.09;5116707;28;20027;-45
2022/04/08 05:38:54;;;;;;;12.55;1.88;;;;;;;1.93;72.06;99176.38;5116750;28;20026;-49
2022/04/08 05:41:20;;;;;;;6.45;2.08;;;;;;;2.02;72.16;99195.72;5115732;28;20036;-47
2022/04/08 05:43:46;;;;;;;6.22;2.40;;;;;;;2.04;71.82;99194.56;5116396;28;20505;-43
2022/04/08 05:46:13;;;;;;;6.10;2.63;;;;;;;2.07;71.73;99188.09;5097634;28;20035;-43
2022/04/08 05:48:39;;;;;;;10.35;3.15;;;;;;;2.14;71.67;99186.44;5115891;28;20434;-43
2022/04/08 05:51:04;;;;;;;15.32;4.80;;;;;;;2.19;71.54;99183.25;5116483;28;20028;-44
2022/04/08 05:53:30;;;;;;;8.52;3.85;;;;;;;2.20;71.43;99187.56;5097847;28;20024;-42
2022/04/08 05:55:57;;;;;;;8.25;3.90;;;;;;;2.24;71.86;99187.03;5116086;28;20051;-42
2022/04/08 05:58:24;;;;;;;9.45;3.08;;;;;;;2.28;71.66;99180.41;5097471;28;20509;-42
2022/04/08 06:00:49;;;;;;;11.00;2.90;;;;;;;2.33;71.58;99179.91;5097657;28;20047;-42
2022/04/08 06:03:15;;;;;;;8.40;2.22;;;;;;;2.48;71.45;99182.66;5115717;28;20073;-42
2022/04/08 06:05:41;;;;;;;9.07;2.22;;;;;;;2.55;71.23;99175.66;5115497;28;20089;-42
2022/04/08 06:08:07;;;;;;;5.68;2.42;;;;;;;2.58;71.91;99182.41;5097268;28;20134;-42
2022/04/08 06:10:34;;;;;;;7.05;1.73;;;;;;;2.58;72.31;99177.97;5115635;28;20498;-45
2022/04/08 06:13:01;;;;;;;3.28;1.40;;;;;;;2.63;72.06;99172.94;5097828;28;20027;-43
2022/04/08 06:15:28;;;;;;;3.28;1.70;;;;;;;2.72;71.69;99163.13;5097625;28;20036;-43
2022/04/08 06:17:55;;;;;;;7.93;1.75;;;;;;;2.66;71.87;99137.34;5097804;28;20019;-43
2022/04/08 06:20:21;;;;;;;3.42;1.48;;;;;;;2.75;72.27;99148.69;5116011;28;20027;-43
2022/04/08 06:22:47;;;;;;;3.28;1.65;;;;;;;2.86;71.91;99145.63;5080507;28;20024;-42
2022/04/08 06:25:16;;;;;;;5.78;1.58;;;;;;;2.95;71.50;99157.84;5115438;28;20027;-47
2022/04/08 06:27:44;;;;;;;6.57;2.30;;;;;;;3.00;71.70;99159.97;5097333;28;20031;-43
2022/04/08 06:30:14;;;;;;;5.47;1.70;;;;;;;3.10;71.49;99156.09;5115638;28;20031;-43
2022/04/08 06:32:43;;;;;;;5.20;1.55;;;;;;;3.15;71.06;99152.88;5115317;28;20040;-43
2022/04/08 06:35:09;;;;;;;4.85;1.60;;;;;;;3.29;70.46;99153.94;5080069;28;20123;-43
2022/04/08 06:37:34;;;;;;;3.13;1.63;;;;;;;3.38;69.99;99158.19;5115196;28;20089;-43
2022/04/08 06:40:04;;;;;;;6.22;1.90;;;;;;;3.43;69.96;99154.97;5096940;28;20039;-46
2022/04/08 06:42:30;;;;;;;4.82;1.63;;;;;;;3.56;69.26;99155.16;5115542;28;20480;-46
2022/04/08 06:44:56;;;;;;;7.00;1.58;;;;;;;3.67;69.36;99157.38;5115849;28;20110;-44
2022/04/08 06:47:21;;;;;;;4.10;1.80;;;;;;;3.74;68.67;99151.38;5115650;28;20070;-45
2022/04/08 06:49:47;;;;;;;4.55;2.00;;;;;;;3.84;68.26;99151.91;5116088;28;20503;-45
2022/04/08 06:52:13;;;;;;;10.07;2.45;;;;;;;3.85;68.83;99151.72;5082050;28;20371;-43
2022/04/08 06:54:39;;;;;;;11.10;2.17;;;;;;;3.92;68.82;99156.31;5116466;28;20035;-44
2022/04/08 06:57:05;;;;;;;11.80;2.05;;;;;;;3.97;68.51;99149.44;5116133;28;20118;-43
2022/04/08 06:59:31;;;;;;;4.65;2.17;;;;;;;3.98;68.22;99139.66;5115413;28;20055;-42
2022/04/08 07:01:56;;;;;;;6.50;1.70;;;;;;;4.03;67.76;99139.91;5116282;28;20383;-43
2022/04/08 07:04:22;;;;;;;5.18;1.80;;;;;;;4.12;67.90;99138.81;5115717;28;20487;-42
2022/04/08 07:06:48;;;;;;;12.25;2.03;;;;;;;4.12;67.38;99135.31;5081290;28;20414;-44
2022/04/08 07:09:14;;;;;;;11.57;1.77;;;;;;;4.15;67.28;99124.34;5115374;28;20138;-44
2022/04/08 07:11:39;;;;;;;3.42;1.52;;;;;;;4.26;67.60;99135.31;5097137;28;20474;-43
2022/04/08 07:14:05;;;;;;;4.68;1.70;;;;;;;4.33;67.32;99130.09;5115173;28;20034;-43
2022/04/08 07:16:31;;;;;;;6.53;2.13;;;;;;;4.39;67.63;99123.19;5114452;28;20028;-44
2022/04/08 07:18:57;;;;;;;4.88;1.75;;;;;;;4.42;67.17;99121.00;5114760;28;20106;-42
2022/04/08 07:21:23;;;;;;;5.60;1.70;;;;;;;4.46;67.24;99119.59;5114153;28;20114;-43
2022/04/08 07:23:49;;;;;;;7.28;2.13;;;;;;;4.55;67.23;99117.66;5096602;28;20023;-43
2022/04/08 07:26:15;;;;;;;6.85;2.45;;;;;;;4.49;67.67;99112.25;5114849;28;20055;-44
2022/04/08 07:28:41;;;;;;;7.90;2.38;;;;;;;4.62;67.00;99123.88;5097062;28;20077;-48
2022/04/08 07:31:07;;;;;;;6.43;1.92;;;;;;;4.80;66.96;99135.91;5114953;28;20402;-48
2022/04/08 07:33:33;;;;;;;5.85;1.95;;;;;;;4.90;66.13;99125.78;5114674;28;20035;-44
2022/04/08 07:35:59;;;;;;;6.47;1.90;;;;;;;5.02;65.75;99132.25;5096555;28;20382;-44
2022/04/08 07:38:25;;;;;;;8.07;2.00;;;;;;;5.16;65.08;99135.88;5096404;28;20024;-44
2022/04/08 07:40:51;;;;;;;8.77;2.20;;;;;;;5.21;65.17;99114.78;5114175;28;20096;-44
2022/04/08 07:43:17;;;;;;;5.47;2.00;;;;;;;5.23;64.52;99102.13;5096928;28;20035;-43
2022/04/08 07:45:43;;;;;;;6.10;2.00;;;;;;;5.23;65.30;99094.13;5096135;28;20024;-42
2022/04/08 07:48:09;;;;;;;6.60;2.08;;;;;;;5.21;65.14;99101.50;5117262;28;20447;-42
2022/04/08 07:50:37;;;;;;;8.43;2.10;;;;;;;5.21;64.70;99101.50;5118941;28;20039;-42
2022/04/08 07:53:04;;;;;;;8.90;2.38;;;;;;;5.21;64.96;99100.66;5100635;28;20032;-43
2022/04/08 07:55:29;;;;;;;3.55;1.58;;;;;;;5.20;64.56;99081.22;5100592;28;20035;-44
2022/04/08 07:57:56;;;;;;;6.03;1.80;;;;;;;5.29;64.43;99103.19;5118618;28;20024;-44
2022/04/08 08:00:25;;;;;;;6.38;2.22;;;;;;;5.33;64.65;99092.97;5118543;28;20475;-43
2022/04/08 08:02:52;;;;;;;6.28;2.25;;;;;;;5.29;65.11;99097.84;5118055;28;20039;-44
2022/04/08 08:05:20;;;;;;;7.47;1.75;;;;;;;5.29;64.79;99081.88;5117853;28;20487;-42
2022/04/08 08:07:53;;;;;;;3.25;1.65;;;;;;;5.44;64.56;99087.13;5117795;28;20069;-43
2022/04/08 08:10:22;;;;;;;9.45;2.63;;;;;;;5.52;64.06;99089.66;5099898;28;20027;-42
2022/04/08 08:12:49;;;;;;;8.20;2.20;;;;;;;5.55;64.75;99083.94;5099605;28;20024;-44
2022/04/08 08:15:15;;;;;;;7.82;2.45;;;;;;;5.60;64.45;99083.34;5118376;28;20392;-45
2022/04/08 08:17:41;;;;;;;8.25;2.15;;;;;;;5.69;64.78;99076.84;5118675;28;20383;-42
2022/04/08 08:20:09;;;;;;;10.25;2.83;;;;;;;5.71;64.39;99085.44;5099690;28;20102;-42
2022/04/08 08:22:36;;;;;;;8.98;2.17;;;;;;;5.63;64.53;99067.78;5118188;28;20024;-45
2022/04/08 08:25:03;;;;;;;5.20;2.10;;;;;;;5.77;64.25;99074.00;5099962;28;20046;-42
2022/04/08 08:27:37;;;;;;;4.47;1.77;;;;;;;5.86;64.54;99071.19;5117737;28;20076;-43
2022/04/08 08:30:04;;;;;;;4.38;1.90;;;;;;;5.92;64.17;99067.72;5117720;28;20435;-43
2022/04/08 08:32:30;;;;;;;7.90;1.90;;;;;;;6.00;63.86;99076.41;5082615;28;20080;-43
2022/04/08 08:34:55;;;;;;;6.13;1.77;;;;;;;6.00;63.58;99080.94;5099344;28;20031;-43
2022/04/08 08:37:21;;;;;;;7.22;1.73;;;;;;;6.08;63.84;99074.59;5117536;28;20031;-47
2022/04/08 08:39:47;;;;;;;7.00;1.88;;;;;;;6.10;63.00;99069.91;5117427;28;20028;-42
2022/04/08 08:42:13;;;;;;;7.75;1.55;;;;;;;6.23;63.69;99088.59;5117220;28;20027;-43
2022/04/08 08:44:39;;;;;;;11.65;1.95;;;;;;;6.37;63.10;99105.44;5118019;28;20031;-43
2022/04/08 08:47:11;;;;;;;9.65;1.83;;;;;;;6.47;62.62;99095.25;5117511;28;20031;-46
2022/04/08 08:49:38;;;;;;;6.38;1.67;;;;;;;6.56;62.48;99094.03;5117284;28;20023;-43
2022/04/08 08:52:09;;;;;;;8.48;2.47;;;;;;;6.85;61.93;99107.22;5117567;28;20038;-43
2022/04/08 08:54:35;;;;;;;6.95;2.47;;;;;;;6.96;61.39;99109.28;5117394;28;20328;-43
2022/04/08 08:57:02;;;;;;;6.45;2.13;;;;;;;7.12;61.40;99119.56;5117191;28;20070;-44
2022/04/08 08:59:29;;;;;;;11.82;2.10;;;;;;;7.35;60.63;99118.34;5116891;28;20027;-43
2022/04/08 09:02:03;;;;;;;9.00;1.95;;;;;;;7.36;60.03;99109.31;5116841;28;20027;-43
2022/04/08 09:04:30;;;;;;;8.50;2.00;;;;;;;7.42;59.29;99113.81;5098372;28;20100;-44
2022/04/08 09:06:57;;;;;;;6.45;1.92;;;;;;;7.53;58.88;99115.88;5098561;28;20043;-46
2022/04/08 09:09:31;;;;;;;3.88;1.60;;;;;;;7.58;59.27;99123.28;5117334;28;20035;-46
2022/04/08 09:12:09;;;;;;;7.10;1.85;;;;;;;7.70;58.91;99120.78;5117077;28;20543;-44
2022/04/08 09:14:35;;;;;;;7.63;1.80;;;;;;;7.84;58.60;99114.38;5117718;28;20412;-46
2022/04/08 09:17:02;;;;;;;10.73;1.83;;;;;;;7.98;57.65;99112.50;5082019;28;20085;-46
2022/04/08 09:19:33;;;;;;;5.35;1.33;;;;;;;8.00;57.67;99128.31;5098801;28;20023;-43
2022/04/08 09:22:00;;;;;;;10.63;2.15;;;;;;;8.11;57.98;99116.97;5099719;28;20115;-43
2022/04/08 09:24:27;;;;;;;5.40;1.67;;;;;;;8.58;56.88;99131.03;5117210;28;20054;-43
2022/04/08 09:26:54;;;;;;;8.68;1.77;;;;;;;9.12;55.52;99126.16;5081414;28;20360;-43
2022/04/08 09:29:21;;;;;;;12.55;1.83;;;;;;;9.98;54.05;99134.47;5116417;28;20027;-43
2022/04/08 09:31:50;;;;;;;8.60;2.03;;;;;;;10.58;52.79;99125.75;5116692;28;20364;-43
2022/04/08 09:34:16;;;;;;;8.50;1.92;;;;;;;10.39;52.50;99108.84;5099052;28;20035;-43
2022/04/08 09:36:43;;;;;;;14.85;2.20;;;;;;;10.89;51.60;99113.97;5117451;28;20028;-43
2022/04/08 09:39:10;;;;;;;9.32;1.27;;;;;;;11.26;49.72;99119.19;5098852;28;20434;-43
2022/04/08 09:41:39;;;;;;;10.55;1.67;;;;;;;11.89;47.96;99119.56;5065263;28;20053;-44
2022/04/08 09:44:07;;;;;;;6.68;1.30;;;;;;;12.12;47.63;99122.22;5117426;28;20076;-43
2022/04/08 09:46:33;;;;;;;6.28;1.02;;;;;;;13.14;46.40;99126.06;5117403;28;20368;-46
2022/04/08 09:48:59;;;;;;;12.07;6.07;;;;;;;14.47;43.36;99111.00;5098313;28;20146;-45
2022/04/08 09:51:27;;;;;;;6.82;2.13;;;;;;;14.42;42.89;99107.41;5116834;28;20032;-43
2022/04/08 09:53:59;;;;;;;3.25;1.05;;;;;;;13.45;43.00;99118.53;5117508;28;20127;-44
2022/04/08 09:56:28;;;;;;;4.60;1.00;;;;;;;13.85;42.86;99124.75;5099249;28;20023;-44
2022/04/08 09:59:06;;;;;;;4.30;1.30;;;;;;;14.77;38.08;99117.84;5117438;28;20030;-44
2022/04/08 10:01:35;;;;;;;4.00;1.05;;;;;;;16.10;39.15;99122.66;5117371;28;20026;-47
2022/04/08 10:04:07;;;;;;;2.40;0.68;;;;;;;16.93;36.97;99111.88;5116337;28;20130;-46
2022/04/08 10:06:35;;;;;;;5.60;1.17;;;;;;;18.31;33.45;99115.53;5117491;28;20041;-42
2022/04/08 10:09:01;;;;;;;4.00;1.15;;;;;;;18.99;34.16;99114.13;5117085;28;20417;-43
2022/04/08 10:11:54;;;;;;;5.22;1.42;;;;;;;19.11;31.87;99109.97;5116682;28;20037;-46
2022/04/08 10:14:46;;;;;;;4.57;1.70;;;;;;;20.01;31.24;99120.63;5084130;28;20032;-44
2022/04/08 10:17:12;;;;;;;5.45;1.40;;;;;;;20.68;29.85;99104.28;5101161;28;20020;-46
2022/04/08 10:19:38;;;;;;;3.08;1.10;;;;;;;20.33;31.83;99117.22;5097475;28;20027;-44
2022/04/08 10:22:14;;;;;;;3.47;1.02;;;;;;;20.54;27.55;99108.78;5097539;28;20100;-45
2022/04/08 10:24:50;;;;;;;3.92;1.23;;;;;;;19.85;28.21;99106.31;5115711;28;20027;-43
2022/04/08 10:27:16;;;;;;;3.85;1.38;;;;;;;20.19;31.14;99102.69;5098915;28;20115;-44
2022/04/08 10:29:43;;;;;;;2.50;0.90;;;;;;;21.61;29.18;99099.00;5097304;28;20106;-44
2022/04/08 10:32:14;;;;;;;4.40;0.93;;;;;;;22.41;26.65;99107.88;5115840;28;20023;-43
2022/04/08 10:34:40;;;;;;;5.07;1.20;;;;;;;21.92;28.11;99097.66;5097413;28;20066;-47
2022/04/08 10:37:24;;;;;;;4.50;0.90;;;;;;;22.40;25.78;99109.00;5115371;28;20028;-46
2022/04/08 10:40:02;;;;;;;3.45;1.05;;;;;;;22.29;25.93;99107.59;5115370;28;20138;-45
2022/04/08 10:42:29;;;;;;;4.65;1.10;;;;;;;22.43;26.16;99099.38;5114729;28;20047;-42
2022/04/08 10:44:55;;;;;;;4.22;1.00;;;;;;;23.27;25.99;99091.72;5115263;28;20126;-43
2022/04/08 10:47:23;;;;;;;4.00;1.20;;;;;;;23.91;26.79;99103.25;5115111;28;20035;-45
2022/04/08 10:49:57;;;;;;;3.55;1.42;;;;;;;23.96;24.72;99099.59;5097113;28;20019;-44
2022/04/08 10:52:28;;;;;;;4.50;1.20;;;;;;;22.92;25.49;99100.47;5115667;28;20027;-45
2022/04/08 10:55:12;;;;;;;3.95;1.33;;;;;;;24.12;25.57;99097.19;5114804;28;20152;-47
2022/04/08 10:57:42;;;;;;;3.55;1.08;;;;;;;24.76;25.21;99090.41;5097116;28;20373;-46
2022/04/08 11:00:11;;;;;;;4.50;1.15;;;;;;;21.90;26.72;99108.03;5063674;28;20031;-44
2022/04/08 11:02:38;;;;;;;3.58;1.10;;;;;;;23.59;25.13;99076.97;5096402;28;20035;-45
2022/04/08 11:05:08;;;;;;;1.92;0.95;;;;;;;24.41;23.20;99087.63;5114678;28;20048;-44
2022/04/08 11:07:39;;;;;;;3.33;1.00;;;;;;;23.16;25.58;99089.25;5096065;28;20024;-44
2022/04/08 11:10:05;;;;;;;7.05;1.50;;;;;;;24.36;24.34;99094.03;5114536;28;20035;-43
2022/04/08 11:12:41;;;;;;;3.67;1.20;;;;;;;22.73;25.63;99102.56;5096429;28;20028;-44
2022/04/08 11:15:13;;;;;;;5.38;1.40;;;;;;;21.55;25.10;99102.94;5114518;28;20020;-46
2022/04/08 11:17:39;;;;;;;3.08;1.58;;;;;;;22.64;26.53;99091.53;5114663;28;20047;-48
2022/04/08 11:20:09;;;;;;;4.07;1.48;;;;;;;24.14;22.27;99101.25;5114661;28;20420;-45
2022/04/08 11:22:44;;;;;;;3.92;1.42;;;;;;;25.21;22.16;99088.16;5114335;28;20023;-44
2022/04/08 11:25:18;;;;;;;4.15;1.30;;;;;;;25.62;22.71;99095.06;5096419;28;20110;-46
2022/04/08 11:27:44;;;;;;;4.60;1.10;;;;;;;23.37;24.30;99084.06;5114525;28;20023;-46
2022/04/08 11:30:10;;;;;;;2.47;1.23;;;;;;;21.55;25.40;99105.69;5114705;28;20030;-43
2022/04/08 11:32:39;;;;;;;3.00;1.13;;;;;;;20.21;26.62;99103.22;5095857;28;20023;-46
2022/04/08 11:35:13;;;;;;;6.10;1.40;;;;;;;21.71;24.43;99108.97;5096112;28;20039;-43
2022/04/08 11:37:39;;;;;;;5.45;1.00;;;;;;;22.86;25.37;99100.91;5079353;28;20028;-43